createdAt,value
2022-09-21T00:01:15.401Z,18.90
2022-09-21T00:03:43.330Z,18.80
2022-09-21T00:06:18.983Z,18.80
2022-09-21T00:08:46.948Z,18.80
2022-09-21T00:11:15.655Z,18.80
2022-09-21T00:13:43.471Z,18.60
2022-09-21T00:16:10.202Z,18.60
2022-09-21T00:18:37.439Z,18.60
2022-09-21T00:21:09.474Z,18.60
2022-09-21T00:23:36.874Z,18.60
2022-09-21T00:26:16.102Z,18.60
2022-09-21T00:28:44.665Z,18.60
2022-09-21T00:31:14.803Z,18.50
2022-09-21T00:33:43.620Z,18.50
2022-09-21T00:36:17.101Z,18.50
2022-09-21T00:38:45.457Z,18.50
2022-09-21T00:41:13.024Z,18.50
2022-09-21T00:44:06.564Z,18.40
2022-09-21T00:46:33.559Z,18.30
2022-09-21T00:49:00.315Z,18.40
2022-09-21T00:51:27.103Z,18.40
2022-09-21T00:54:02.177Z,18.40
2022-09-21T00:56:30.013Z,18.30
2022-09-21T00:58:57.547Z,18.40
2022-09-21T01:01:24.894Z,18.30
2022-09-21T01:03:53.555Z,18.30
2022-09-21T01:06:21.199Z,18.20
2022-09-21T01:08:53.426Z,18.20
2022-09-21T01:11:36.569Z,18.20
2022-09-21T01:14:40.901Z,18.10
2022-09-21T01:17:32.031Z,18.10
2022-09-21T01:20:04.981Z,18.10
2022-09-21T01:23:02.756Z,18.00
2022-09-21T01:26:02.742Z,18.10
2022-09-21T01:28:32.222Z,18.10
2022-09-21T01:31:01.447Z,18.10
2022-09-21T01:33:35.634Z,18.10
2022-09-21T01:36:09.176Z,18.10
2022-09-21T01:38:42.408Z,18.10
2022-09-21T01:41:12.517Z,18.00
2022-09-21T01:43:43.681Z,18.00
2022-09-21T01:46:15.392Z,18.00
2022-09-21T01:48:46.188Z,18.00
2022-09-21T01:51:16.644Z,18.10
2022-09-21T01:53:49.272Z,18.10
2022-09-21T01:56:18.372Z,18.10
2022-09-21T01:59:07.096Z,18.10
2022-09-21T02:01:41.261Z,18.10
2022-09-21T02:04:13.239Z,18.00
2022-09-21T02:06:43.636Z,18.00
2022-09-21T02:09:11.384Z,18.10
2022-09-21T02:11:42.654Z,18.10
2022-09-21T02:14:20.319Z,18.10
2022-09-21T02:17:23.702Z,18.10
2022-09-21T02:19:57.871Z,18.00
2022-09-21T02:22:29.413Z,18.00
2022-09-21T02:25:04.309Z,18.10
2022-09-21T02:27:40.097Z,18.00
2022-09-21T02:30:09.652Z,18.00
2022-09-21T02:33:05.620Z,18.00
2022-09-21T02:35:38.752Z,17.90
2022-09-21T02:38:27.434Z,17.90
2022-09-21T02:41:20.068Z,17.80
2022-09-21T02:44:04.138Z,17.90
2022-09-21T02:47:09.072Z,17.80
2022-09-21T02:49:41.520Z,17.80
2022-09-21T02:52:13.313Z,17.80
2022-09-21T02:54:43.888Z,18.00
2022-09-21T02:57:12.942Z,17.80
2022-09-21T02:59:40.623Z,17.80
2022-09-21T03:02:08.135Z,17.90
2022-09-21T03:04:34.935Z,17.80
2022-09-21T03:07:01.626Z,17.90
2022-09-21T03:09:29.611Z,17.80
2022-09-21T03:11:56.335Z,17.80
2022-09-21T03:14:22.979Z,17.80
2022-09-21T03:16:49.812Z,17.80
2022-09-21T03:19:16.801Z,17.80
2022-09-21T03:21:44.737Z,17.80
2022-09-21T03:24:11.900Z,17.80
2022-09-21T03:26:39.061Z,17.80
2022-09-21T03:29:06.287Z,17.80
2022-09-21T03:31:34.813Z,17.80
2022-09-21T03:34:02.088Z,17.80
2022-09-21T03:36:28.847Z,17.80
2022-09-21T03:38:55.669Z,17.80
2022-09-21T03:41:22.443Z,17.80
2022-09-21T03:43:49.241Z,18.70
2022-09-21T03:46:17.262Z,17.80
2022-09-21T03:48:47.458Z,17.90
2022-09-21T03:51:14.477Z,17.90
2022-09-21T03:53:41.662Z,18.00
2022-09-21T03:56:08.538Z,18.00
2022-09-21T03:58:35.304Z,18.00
2022-09-21T04:01:03.763Z,18.00
2022-09-21T04:03:30.715Z,18.10
2022-09-21T04:05:57.773Z,18.00
2022-09-21T04:08:24.645Z,18.10
2022-09-21T04:10:51.465Z,18.00
2022-09-21T04:13:18.185Z,18.10
2022-09-21T04:15:44.980Z,18.00
2022-09-21T04:18:12.074Z,18.10
2022-09-21T04:20:38.891Z,18.10
2022-09-21T04:23:05.984Z,18.10
2022-09-21T04:25:33.574Z,18.10
2022-09-21T04:28:00.404Z,18.10
2022-09-21T04:30:27.209Z,18.10
2022-09-21T04:32:54.008Z,18.20
2022-09-21T04:35:21.066Z,18.10
2022-09-21T04:37:47.820Z,18.10
2022-09-21T04:40:14.592Z,18.10
2022-09-21T04:42:41.342Z,18.00
2022-09-21T04:45:08.659Z,18.00
2022-09-21T04:47:35.372Z,18.00
2022-09-21T04:50:02.065Z,17.90
2022-09-21T04:52:28.765Z,17.90
2022-09-21T04:54:56.442Z,17.80
2022-09-21T04:57:23.097Z,17.70
2022-09-21T04:59:49.804Z,17.70
2022-09-21T05:02:16.528Z,17.70
2022-09-21T05:04:46.409Z,17.70
2022-09-21T05:07:16.090Z,17.70
2022-09-21T05:10:01.377Z,17.70
2022-09-21T05:12:28.331Z,17.70
2022-09-21T05:14:56.006Z,17.60
2022-09-21T05:17:23.287Z,17.50
2022-09-21T05:19:51.273Z,17.40
2022-09-21T05:22:18.062Z,17.40
2022-09-21T05:24:44.950Z,17.40
2022-09-21T05:27:13.044Z,17.30
2022-09-21T05:29:41.170Z,17.30
2022-09-21T05:32:23.699Z,17.40
2022-09-21T05:35:11.105Z,17.30
2022-09-21T05:38:07.108Z,17.30
2022-09-21T05:40:34.454Z,17.30
2022-09-21T05:43:01.449Z,17.30
2022-09-21T05:45:29.500Z,17.30
2022-09-21T05:48:05.306Z,17.30
2022-09-21T05:50:50.944Z,17.30
2022-09-21T05:53:29.596Z,17.30
2022-09-21T05:55:57.509Z,17.20
2022-09-21T05:58:50.290Z,17.30
2022-09-21T06:01:40.816Z,17.30
2022-09-21T06:04:12.172Z,17.30
2022-09-21T06:06:40.324Z,17.30
2022-09-21T06:09:07.179Z,17.30
2022-09-21T06:11:34.736Z,17.40
2022-09-21T06:14:02.956Z,17.40
2022-09-21T06:16:41.041Z,17.40
2022-09-21T06:19:11.883Z,17.40
2022-09-21T06:21:38.557Z,17.40
2022-09-21T06:24:05.391Z,17.50
2022-09-21T06:26:32.207Z,17.40
2022-09-21T06:28:58.860Z,17.40
2022-09-21T06:31:27.733Z,17.70
2022-09-21T06:33:54.743Z,17.40
2022-09-21T06:36:21.494Z,17.30
2022-09-21T06:38:48.235Z,17.50
2022-09-21T06:41:20.083Z,17.30
2022-09-21T06:43:48.061Z,16.60
2022-09-21T06:46:15.221Z,17.30
2022-09-21T06:48:42.127Z,17.40
2022-09-21T06:51:12.305Z,17.30
2022-09-21T06:53:39.420Z,17.20
2022-09-21T06:56:08.626Z,17.30
2022-09-21T06:58:37.595Z,17.50
2022-09-21T07:01:10.104Z,17.50
2022-09-21T07:03:38.573Z,17.50
2022-09-21T07:06:06.344Z,17.40
2022-09-21T07:11:22.740Z,17.60
2022-09-21T07:13:50.599Z,17.70
2022-09-21T07:16:19.792Z,17.90
2022-09-21T07:18:47.174Z,17.90
2022-09-21T07:21:15.177Z,17.90
2022-09-21T07:23:45.401Z,18.00
2022-09-21T07:26:14.384Z,18.00
2022-09-21T07:28:42.357Z,18.00
2022-09-21T07:31:17.784Z,17.90
2022-09-21T07:33:47.405Z,18.00
2022-09-21T07:36:14.484Z,18.00
2022-09-21T07:38:43.981Z,18.00
2022-09-21T07:41:13.315Z,18.20
2022-09-21T07:43:40.582Z,18.30
2022-09-21T07:46:13.100Z,18.40
2022-09-21T07:48:40.620Z,17.70
2022-09-21T07:51:12.768Z,18.50
2022-09-21T07:53:41.901Z,18.60
2022-09-21T07:56:11.273Z,18.50
2022-09-21T07:58:57.559Z,18.50
2022-09-21T08:01:25.301Z,18.50
2022-09-21T08:03:54.093Z,18.60
2022-09-21T08:06:22.524Z,18.70
2022-09-21T08:08:55.060Z,18.70
2022-09-21T08:11:24.279Z,18.80
2022-09-21T08:13:55.802Z,18.80
2022-09-21T08:16:23.019Z,18.90
2022-09-21T08:18:51.485Z,19.00
2022-09-21T08:21:20.472Z,19.20
2022-09-21T08:23:49.149Z,19.40
2022-09-21T08:26:22.930Z,19.60
2022-09-21T08:28:52.439Z,19.70
2022-09-21T08:31:21.422Z,19.90
2022-09-21T08:33:49.832Z,20.10
2022-09-21T08:36:17.610Z,20.10
2022-09-21T08:38:44.952Z,20.00
2022-09-21T08:41:17.930Z,20.00
2022-09-21T08:43:53.725Z,20.00
2022-09-21T08:46:24.899Z,20.00
2022-09-21T08:49:04.052Z,19.90
2022-09-21T08:51:35.832Z,19.80
2022-09-21T08:54:21.085Z,19.80
2022-09-21T08:57:04.401Z,19.80
2022-09-21T08:59:33.410Z,19.70
2022-09-21T09:02:38.017Z,19.70
2022-09-21T09:05:33.487Z,19.90
2022-09-21T09:08:18.109Z,20.00
2022-09-21T09:10:44.764Z,20.20
2022-09-21T09:13:42.153Z,20.20
2022-09-21T09:16:27.598Z,20.10
2022-09-21T09:19:00.627Z,20.00
2022-09-21T09:21:40.592Z,20.00
2022-09-21T09:24:20.670Z,20.00
2022-09-21T09:26:55.453Z,20.00
2022-09-21T09:30:03.652Z,20.20
2022-09-21T09:32:49.594Z,20.40
2022-09-21T09:35:25.453Z,20.40
2022-09-21T09:37:58.396Z,20.40
2022-09-21T09:40:52.579Z,20.50
2022-09-21T09:43:56.419Z,20.60
2022-09-21T09:46:43.172Z,20.90
2022-09-21T09:49:12.937Z,21.00
2022-09-21T09:51:40.697Z,21.10
2022-09-21T09:54:15.023Z,21.00
2022-09-21T09:56:42.818Z,21.00
2022-09-21T09:59:55.236Z,21.00
2022-09-21T10:02:27.376Z,21.00
2022-09-21T10:05:08.935Z,21.00
2022-09-21T10:07:39.337Z,21.10
2022-09-21T10:10:37.159Z,21.10
2022-09-21T10:13:23.656Z,21.10
2022-09-21T10:16:00.133Z,21.10
2022-09-21T10:18:58.908Z,21.30
2022-09-21T10:21:32.600Z,21.50
2022-09-21T10:24:02.758Z,21.70
2022-09-21T10:26:37.012Z,22.10
2022-09-21T10:29:25.246Z,22.50
2022-09-21T10:31:59.856Z,22.70
2022-09-21T10:34:30.206Z,22.90
2022-09-21T10:36:59.356Z,23.30
2022-09-21T10:39:30.168Z,23.60
2022-09-21T10:42:12.193Z,24.00
2022-09-21T10:44:50.924Z,24.10
2022-09-21T10:47:38.986Z,24.20
2022-09-21T10:50:28.199Z,23.80
2022-09-21T10:53:01.556Z,23.60
2022-09-21T10:55:30.540Z,23.70
2022-09-21T10:57:57.967Z,23.70
2022-09-21T11:00:24.570Z,23.90
2022-09-21T11:02:52.432Z,23.60
2022-09-21T11:05:32.136Z,23.80
2022-09-21T11:08:02.695Z,24.40
2022-09-21T11:10:51.984Z,25.00
2022-09-21T11:13:37.340Z,25.70
2022-09-21T11:16:14.734Z,26.10
2022-09-21T11:19:03.199Z,26.60
2022-09-21T11:21:41.668Z,27.20
2022-09-21T11:24:42.835Z,27.50
2022-09-21T11:27:27.818Z,27.60
2022-09-21T11:30:16.801Z,28.00
2022-09-21T11:33:44.564Z,28.50
2022-09-21T11:36:33.347Z,29.20
2022-09-21T11:39:11.263Z,29.50
2022-09-21T11:42:05.855Z,29.70
2022-09-21T11:45:00.726Z,29.60
2022-09-21T11:47:50.278Z,29.80
2022-09-21T11:50:31.984Z,30.20
2022-09-21T11:53:07.700Z,30.40
2022-09-21T11:55:58.542Z,30.50
2022-09-21T11:58:39.630Z,29.70
2022-09-21T12:01:09.268Z,30.00
2022-09-21T12:03:50.919Z,31.40
2022-09-21T12:06:29.759Z,32.80
2022-09-21T12:09:22.553Z,33.60
2022-09-21T12:12:11.806Z,33.40
2022-09-21T12:15:11.489Z,32.20
2022-09-21T12:17:43.912Z,33.10
2022-09-21T12:20:26.302Z,34.40
2022-09-21T12:23:02.305Z,34.70
2022-09-21T12:25:36.069Z,35.50
2022-09-21T12:28:21.178Z,35.60
2022-09-21T12:30:53.885Z,37.00
2022-09-21T12:33:33.362Z,38.50
2022-09-21T12:36:07.889Z,39.50
2022-09-21T12:39:12.851Z,40.30
2022-09-21T12:42:04.142Z,39.70
2022-09-21T12:44:51.933Z,39.30
2022-09-21T12:47:46.117Z,40.30
2022-09-21T12:50:28.892Z,39.20
2022-09-21T12:52:57.528Z,37.70
2022-09-21T12:55:44.596Z,34.50
2022-09-21T12:58:17.281Z,33.90
2022-09-21T13:01:07.673Z,32.60
2022-09-21T13:03:43.156Z,34.60
2022-09-21T13:06:22.457Z,35.60
2022-09-21T13:11:23.298Z,34.10
2022-09-21T13:13:53.798Z,34.70
2022-09-21T13:16:27.576Z,35.30
2022-09-21T13:19:01.646Z,37.00
2022-09-21T13:21:30.456Z,38.70
2022-09-21T13:24:01.452Z,39.50
2022-09-21T13:26:43.472Z,39.20
2022-09-21T13:29:19.039Z,39.00
2022-09-21T13:32:04.279Z,36.80
2022-09-21T13:34:51.522Z,34.20
2022-09-21T13:37:18.182Z,32.80
2022-09-21T13:39:47.908Z,33.90
2022-09-21T13:42:30.211Z,36.30
2022-09-21T13:45:01.570Z,34.90
2022-09-21T13:47:33.408Z,32.50
2022-09-21T13:50:23.148Z,30.60
2022-09-21T13:52:58.730Z,29.10
2022-09-21T13:55:39.913Z,28.10
2022-09-21T13:58:21.051Z,27.60
2022-09-21T14:00:53.883Z,27.20
2022-09-21T14:03:39.680Z,26.90
2022-09-21T14:06:06.279Z,26.60
2022-09-21T14:08:37.202Z,26.30
2022-09-21T14:11:29.118Z,25.90
2022-09-21T14:14:05.363Z,25.80
2022-09-21T14:16:36.742Z,25.40
2022-09-21T14:19:17.534Z,25.10
2022-09-21T14:22:07.794Z,24.80
2022-09-21T14:24:37.348Z,24.70
2022-09-21T14:27:25.328Z,24.70
2022-09-21T14:30:15.259Z,23.90
2022-09-21T14:32:47.361Z,24.30
2022-09-21T14:35:21.722Z,24.30
2022-09-21T14:37:59.963Z,24.30
2022-09-21T14:40:32.397Z,24.50
2022-09-21T14:43:02.523Z,24.60
2022-09-21T14:45:55.801Z,24.70
2022-09-21T14:48:30.721Z,24.60
2022-09-21T14:51:16.052Z,24.40
2022-09-21T14:54:01.856Z,24.40
2022-09-21T14:56:33.896Z,24.40
2022-09-21T14:59:26.452Z,24.40
2022-09-21T15:02:19.920Z,24.20
2022-09-21T15:05:14.216Z,24.30
2022-09-21T15:08:40.934Z,24.20
2022-09-21T15:11:22.233Z,24.20
2022-09-21T15:14:17.945Z,24.10
2022-09-21T15:16:48.669Z,24.00
2022-09-21T15:19:18.493Z,24.00
2022-09-21T15:21:51.543Z,24.10
2022-09-21T15:24:26.646Z,24.20
2022-09-21T15:27:02.597Z,24.30
2022-09-21T15:29:31.698Z,24.20
2022-09-21T15:31:59.569Z,24.20
2022-09-21T15:34:26.938Z,24.10
2022-09-21T15:36:54.072Z,24.50
2022-09-21T15:39:29.167Z,26.10
2022-09-21T15:42:22.427Z,27.90
2022-09-21T15:44:54.222Z,29.40
2022-09-21T15:47:26.132Z,30.10
2022-09-21T15:49:53.104Z,30.60
2022-09-21T15:52:37.861Z,30.80
2022-09-21T15:55:22.036Z,30.90
2022-09-21T15:57:51.462Z,30.60
2022-09-21T16:00:22.118Z,30.30
2022-09-21T16:03:07.885Z,29.40
2022-09-21T16:05:43.214Z,28.30
2022-09-21T16:08:19.116Z,27.20
2022-09-21T16:10:46.011Z,26.30
2022-09-21T16:13:36.865Z,25.40
2022-09-21T16:16:08.082Z,24.80
2022-09-21T16:18:50.132Z,24.30
2022-09-21T16:21:29.118Z,23.90
2022-09-21T16:23:58.024Z,23.60
2022-09-21T16:26:29.834Z,23.50
2022-09-21T16:29:19.225Z,23.30
2022-09-21T16:31:50.126Z,23.20
2022-09-21T16:34:17.597Z,23.10
2022-09-21T16:36:45.772Z,23.00
2022-09-21T16:39:15.574Z,22.90
2022-09-21T16:42:01.699Z,22.80
2022-09-21T16:44:36.712Z,22.70
2022-09-21T16:47:04.378Z,22.60
2022-09-21T16:49:35.002Z,22.50
2022-09-21T16:52:02.079Z,22.40
2022-09-21T16:54:29.969Z,22.30
2022-09-21T16:56:59.372Z,22.20
2022-09-21T16:59:26.355Z,22.10
2022-09-21T17:01:56.493Z,22.10
2022-09-21T17:04:26.195Z,22.10
2022-09-21T17:06:54.017Z,22.00
2022-09-21T17:09:31.359Z,22.00
2022-09-21T17:12:02.859Z,21.90
2022-09-21T17:14:35.420Z,21.90
2022-09-21T17:17:20.115Z,21.80
2022-09-21T17:19:49.728Z,21.80
2022-09-21T17:22:18.142Z,21.80
2022-09-21T17:24:51.734Z,21.70
2022-09-21T17:27:24.269Z,21.60
2022-09-21T17:29:51.196Z,21.60
2022-09-21T17:32:20.512Z,21.40
2022-09-21T17:34:53.450Z,21.40
2022-09-21T17:37:20.224Z,21.40
2022-09-21T17:39:47.222Z,21.40
2022-09-21T17:42:18.949Z,21.30
2022-09-21T17:45:21.438Z,21.30
2022-09-21T17:47:50.282Z,21.30
2022-09-21T17:50:26.841Z,21.20
2022-09-21T17:53:13.815Z,21.20
2022-09-21T17:55:54.240Z,21.10
2022-09-21T17:58:48.550Z,21.10
2022-09-21T18:01:36.189Z,21.00
2022-09-21T18:04:03.813Z,21.00
2022-09-21T18:06:31.487Z,20.90
2022-09-21T18:08:58.641Z,20.80
2022-09-21T18:11:28.229Z,20.80
2022-09-21T18:14:07.467Z,20.70
2022-09-21T18:16:55.079Z,20.70
2022-09-21T18:19:40.908Z,20.60
2022-09-21T18:22:26.051Z,20.60
2022-09-21T18:24:56.792Z,20.60
2022-09-21T18:27:24.253Z,20.50
2022-09-21T18:29:51.386Z,20.50
2022-09-21T18:32:52.016Z,20.50
2022-09-21T18:35:44.340Z,20.40
2022-09-21T18:38:31.844Z,20.40
2022-09-21T18:41:24.510Z,20.40
2022-09-21T18:44:13.169Z,20.30
2022-09-21T18:46:50.626Z,20.30
2022-09-21T18:49:35.401Z,20.30
2022-09-21T18:52:26.518Z,20.20
2022-09-21T18:54:53.599Z,20.20
2022-09-21T18:57:23.309Z,20.10
2022-09-21T18:59:50.546Z,20.10
2022-09-21T19:02:20.021Z,20.00
2022-09-21T19:04:47.325Z,19.90
2022-09-21T19:07:40.094Z,19.80
2022-09-21T19:10:22.575Z,19.80
2022-09-21T19:13:05.927Z,19.80
2022-09-21T19:16:01.540Z,19.70
2022-09-21T19:18:49.011Z,19.70
2022-09-21T19:21:27.319Z,19.70
2022-09-21T19:24:04.610Z,19.60
2022-09-21T19:26:46.701Z,19.60
2022-09-21T19:29:22.647Z,19.60
2022-09-21T19:31:49.424Z,19.60
2022-09-21T19:34:20.348Z,19.50
2022-09-21T19:36:47.715Z,19.50
2022-09-21T19:39:15.487Z,19.40
2022-09-21T19:42:06.644Z,19.40
2022-09-21T19:44:42.204Z,19.30
2022-09-21T19:47:16.616Z,19.30
2022-09-21T19:49:50.852Z,19.20
2022-09-21T19:52:19.594Z,19.10
2022-09-21T19:55:04.951Z,19.10
2022-09-21T19:57:52.313Z,19.00
2022-09-21T20:00:19.305Z,19.00
2022-09-21T20:03:00.400Z,19.00
2022-09-21T20:05:45.903Z,19.00
2022-09-21T20:08:37.630Z,19.00
2022-09-21T20:11:21.008Z,18.90
2022-09-21T20:14:06.350Z,19.00
2022-09-21T20:16:37.478Z,18.90
2022-09-21T20:19:49.379Z,18.90
2022-09-21T20:22:19.331Z,18.80
2022-09-21T20:24:49.283Z,18.90
2022-09-21T20:27:38.731Z,18.80
2022-09-21T20:30:15.263Z,18.70
2022-09-21T20:32:44.985Z,18.70
2022-09-21T20:35:23.956Z,18.60
2022-09-21T20:37:51.684Z,18.60
2022-09-21T20:40:20.349Z,18.50
2022-09-21T20:42:47.045Z,18.50
2022-09-21T20:45:13.828Z,18.60
2022-09-21T20:47:40.479Z,18.60
2022-09-21T20:50:11.848Z,18.50
2022-09-21T20:52:41.381Z,18.50
2022-09-21T20:55:10.227Z,18.50
2022-09-21T20:57:37.397Z,18.40
2022-09-21T21:00:06.949Z,18.40
2022-09-21T21:02:35.136Z,18.40
2022-09-21T21:05:01.862Z,18.40
2022-09-21T21:07:30.681Z,18.40
2022-09-21T21:09:58.688Z,18.40
2022-09-21T21:12:25.939Z,18.30
2022-09-21T21:14:53.187Z,18.30
2022-09-21T21:17:19.946Z,18.20
2022-09-21T21:19:46.628Z,18.30
2022-09-21T21:22:13.957Z,18.30
2022-09-21T21:24:41.026Z,18.20
2022-09-21T21:27:19.314Z,18.10
2022-09-21T21:29:49.906Z,18.10
2022-09-21T21:32:18.318Z,18.10
2022-09-21T21:34:45.600Z,18.00
2022-09-21T21:37:14.182Z,18.00
2022-09-21T21:39:40.844Z,17.90
2022-09-21T21:42:07.926Z,18.00
2022-09-21T21:44:34.766Z,17.90
2022-09-21T21:47:20.999Z,17.90
2022-09-21T21:49:48.529Z,17.80
2022-09-21T21:52:15.583Z,17.90
2022-09-21T21:54:42.212Z,17.90
2022-09-21T21:57:10.042Z,17.80
2022-09-21T21:59:36.981Z,17.70
2022-09-21T22:02:05.232Z,17.70
2022-09-21T22:04:32.555Z,17.80
2022-09-21T22:06:59.214Z,17.80
2022-09-21T22:09:25.943Z,17.70
2022-09-21T22:11:52.664Z,17.70
2022-09-21T22:14:19.363Z,17.60
2022-09-21T22:16:46.404Z,17.50
2022-09-21T22:19:13.165Z,17.60
2022-09-21T22:21:45.998Z,17.50
2022-09-21T22:24:15.013Z,17.40
2022-09-21T22:26:44.361Z,17.40
2022-09-21T22:29:15.574Z,17.40
2022-09-21T22:31:45.029Z,17.40
2022-09-21T22:34:12.596Z,17.30
2022-09-21T22:36:40.359Z,17.30
2022-09-21T22:39:08.357Z,17.30
2022-09-21T22:41:37.618Z,17.20
2022-09-21T22:44:04.618Z,17.30
2022-09-21T22:46:32.192Z,17.20
2022-09-21T22:49:00.613Z,17.20
2022-09-21T22:51:28.231Z,17.20
2022-09-21T22:53:55.514Z,17.20
2022-09-21T22:56:27.742Z,17.10
2022-09-21T22:58:56.843Z,17.10
2022-09-21T23:01:33.495Z,17.10
2022-09-21T23:04:06.920Z,17.10
2022-09-21T23:06:36.144Z,17.00
2022-09-21T23:09:06.564Z,16.90
2022-09-21T23:11:39.623Z,17.00
2022-09-21T23:14:06.332Z,17.00
2022-09-21T23:16:33.292Z,17.00
2022-09-21T23:19:00.253Z,16.80
2022-09-21T23:21:29.372Z,16.70
2022-09-21T23:24:01.540Z,16.60
2022-09-21T23:26:30.138Z,16.70
2022-09-21T23:28:58.926Z,16.70
2022-09-21T23:31:29.312Z,16.70
2022-09-21T23:33:58.943Z,16.60
2022-09-21T23:36:28.400Z,16.60
2022-09-21T23:38:55.685Z,16.60
2022-09-21T23:41:27.745Z,16.60
2022-09-21T23:43:55.423Z,16.70
2022-09-21T23:46:25.538Z,16.70
2022-09-21T23:48:52.577Z,16.70
2022-09-21T23:51:19.764Z,16.70
2022-09-21T23:53:47.348Z,16.70
2022-09-21T23:56:19.635Z,16.80
2022-09-21T23:58:48.304Z,16.80
